sensor_id;sensor_type;location;lat;lon;timestamp;pressure;altitude;pressure_sealevel;temperature;humidity
61359;BME280;47228;46.762;23.598;2023-12-14T00:01:46;95660.55;;;5.54;91.67
61359;BME280;47228;46.762;23.598;2023-12-14T00:04:16;95666.74;;;5.55;91.70
61359;BME280;47228;46.762;23.598;2023-12-14T00:06:44;95672.45;;;5.55;91.87
61359;BME280;47228;46.762;23.598;2023-12-14T00:09:13;95665.33;;;5.55;91.81
61359;BME280;47228;46.762;23.598;2023-12-14T00:11:41;95640.55;;;5.58;92.35
61359;BME280;47228;46.762;23.598;2023-12-14T00:14:09;95645.14;;;5.63;92.58
61359;BME280;47228;46.762;23.598;2023-12-14T00:16:37;95647.80;;;5.69;92.81
61359;BME280;47228;46.762;23.598;2023-12-14T00:19:05;95643.09;;;5.76;93.08
61359;BME280;47228;46.762;23.598;2023-12-14T00:21:33;95650.05;;;5.82;92.98
61359;BME280;47228;46.762;23.598;2023-12-14T00:24:02;95659.42;;;5.87;92.91
61359;BME280;47228;46.762;23.598;2023-12-14T00:26:30;95665.23;;;5.91;92.54
61359;BME280;47228;46.762;23.598;2023-12-14T00:28:58;95652.74;;;5.91;92.18
61359;BME280;47228;46.762;23.598;2023-12-14T00:31:29;95631.15;;;5.93;92.41
61359;BME280;47228;46.762;23.598;2023-12-14T00:33:57;95618.12;;;5.96;92.68
61359;BME280;47228;46.762;23.598;2023-12-14T00:36:25;95630.02;;;5.99;92.46
61359;BME280;47228;46.762;23.598;2023-12-14T00:38:53;95626.46;;;6.02;92.42
61359;BME280;47228;46.762;23.598;2023-12-14T00:41:23;95618.88;;;6.04;92.25
61359;BME280;47228;46.762;23.598;2023-12-14T00:43:51;95622.40;;;6.06;92.15
61359;BME280;47228;46.762;23.598;2023-12-14T00:46:20;95633.95;;;6.07;92.13
61359;BME280;47228;46.762;23.598;2023-12-14T00:48:48;95635.21;;;6.06;91.75
61359;BME280;47228;46.762;23.598;2023-12-14T00:51:16;95624.64;;;6.05;91.70
61359;BME280;47228;46.762;23.598;2023-12-14T00:53:44;95626.15;;;6.04;91.61
61359;BME280;47228;46.762;23.598;2023-12-14T00:56:12;95629.55;;;6.01;91.21
61359;BME280;47228;46.762;23.598;2023-12-14T00:58:41;95632.01;;;5.97;91.29
61359;BME280;47228;46.762;23.598;2023-12-14T01:01:09;95621.60;;;5.96;91.56
61359;BME280;47228;46.762;23.598;2023-12-14T01:03:37;95662.58;;;5.93;91.15
61359;BME280;47228;46.762;23.598;2023-12-14T01:06:05;95655.14;;;5.86;90.86
61359;BME280;47228;46.762;23.598;2023-12-14T01:08:34;95638.93;;;5.84;91.54
61359;BME280;47228;46.762;23.598;2023-12-14T01:11:02;95674.29;;;5.84;91.63
61359;BME280;47228;46.762;23.598;2023-12-14T01:13:31;95682.58;;;5.80;91.33
61359;BME280;47228;46.762;23.598;2023-12-14T01:15:59;95686.68;;;5.80;92.08
61359;BME280;47228;46.762;23.598;2023-12-14T01:18:27;95705.23;;;5.79;91.73
61359;BME280;47228;46.762;23.598;2023-12-14T01:20:55;95698.25;;;5.76;91.55
61359;BME280;47228;46.762;23.598;2023-12-14T01:23:23;95694.81;;;5.77;92.15
61359;BME280;47228;46.762;23.598;2023-12-14T01:25:51;95693.73;;;5.78;92.09
61359;BME280;47228;46.762;23.598;2023-12-14T01:28:19;95677.09;;;5.82;92.40
61359;BME280;47228;46.762;23.598;2023-12-14T01:30:47;95665.02;;;5.86;92.35
61359;BME280;47228;46.762;23.598;2023-12-14T01:33:16;95662.93;;;5.88;92.60
61359;BME280;47228;46.762;23.598;2023-12-14T01:35:44;95657.41;;;5.91;92.65
61359;BME280;47228;46.762;23.598;2023-12-14T01:38:12;95657.86;;;5.94;92.31
61359;BME280;47228;46.762;23.598;2023-12-14T01:40:40;95664.42;;;5.95;91.81
61359;BME280;47228;46.762;23.598;2023-12-14T01:43:09;95665.86;;;5.94;91.81
61359;BME280;47228;46.762;23.598;2023-12-14T01:45:40;95675.21;;;5.94;92.19
61359;BME280;47228;46.762;23.598;2023-12-14T01:48:09;95680.02;;;5.95;91.68
61359;BME280;47228;46.762;23.598;2023-12-14T01:50:37;95678.61;;;5.95;91.38
61359;BME280;47228;46.762;23.598;2023-12-14T01:53:05;95669.65;;;5.95;91.47
61359;BME280;47228;46.762;23.598;2023-12-14T01:55:34;95666.11;;;5.97;91.56
61359;BME280;47228;46.762;23.598;2023-12-14T01:58:02;95670.41;;;5.98;91.49
61359;BME280;47228;46.762;23.598;2023-12-14T02:00:45;95672.75;;;5.93;90.46
61359;BME280;47228;46.762;23.598;2023-12-14T02:03:16;95685.59;;;5.84;89.87
61359;BME280;47228;46.762;23.598;2023-12-14T02:05:44;95689.09;;;5.75;89.94
61359;BME280;47228;46.762;23.598;2023-12-14T02:08:13;95683.14;;;5.70;90.64
61359;BME280;47228;46.762;23.598;2023-12-14T02:10:41;95678.89;;;5.69;91.18
61359;BME280;47228;46.762;23.598;2023-12-14T02:13:09;95681.59;;;5.70;91.57
61359;BME280;47228;46.762;23.598;2023-12-14T02:15:37;95685.48;;;5.71;91.75
61359;BME280;47228;46.762;23.598;2023-12-14T02:18:05;95682.50;;;5.72;91.71
61359;BME280;47228;46.762;23.598;2023-12-14T02:20:34;95684.30;;;5.75;91.92
61359;BME280;47228;46.762;23.598;2023-12-14T02:23:02;95683.98;;;5.78;91.85
61359;BME280;47228;46.762;23.598;2023-12-14T02:25:30;95685.27;;;5.80;91.92
61359;BME280;47228;46.762;23.598;2023-12-14T02:27:59;95695.61;;;5.84;92.30
61359;BME280;47228;46.762;23.598;2023-12-14T02:30:27;95704.27;;;5.88;92.30
61359;BME280;47228;46.762;23.598;2023-12-14T02:32:55;95706.50;;;5.91;92.11
61359;BME280;47228;46.762;23.598;2023-12-14T02:35:23;95707.66;;;5.94;92.12
61359;BME280;47228;46.762;23.598;2023-12-14T02:37:51;95725.29;;;5.94;92.14
61359;BME280;47228;46.762;23.598;2023-12-14T02:40:20;95734.30;;;5.93;91.72
61359;BME280;47228;46.762;23.598;2023-12-14T02:42:48;95737.18;;;5.92;92.01
61359;BME280;47228;46.762;23.598;2023-12-14T02:45:15;95726.87;;;5.93;91.92
61359;BME280;47228;46.762;23.598;2023-12-14T02:47:44;95721.11;;;5.93;91.83
61359;BME280;47228;46.762;23.598;2023-12-14T02:50:12;95718.97;;;5.93;91.92
61359;BME280;47228;46.762;23.598;2023-12-14T02:52:40;95708.27;;;5.94;91.92
61359;BME280;47228;46.762;23.598;2023-12-14T02:55:08;95707.27;;;5.97;92.03
61359;BME280;47228;46.762;23.598;2023-12-14T02:57:36;95705.32;;;5.97;91.55
61359;BME280;47228;46.762;23.598;2023-12-14T03:00:05;95699.23;;;5.96;91.72
61359;BME280;47228;46.762;23.598;2023-12-14T03:02:33;95684.88;;;5.97;91.96
61359;BME280;47228;46.762;23.598;2023-12-14T03:05:02;95665.05;;;6.00;91.93
61359;BME280;47228;46.762;23.598;2023-12-14T03:07:31;95656.76;;;6.02;92.03
61359;BME280;47228;46.762;23.598;2023-12-14T03:09:59;95669.98;;;6.03;91.73
61359;BME280;47228;46.762;23.598;2023-12-14T03:12:27;95689.94;;;6.00;90.94
61359;BME280;47228;46.762;23.598;2023-12-14T03:14:55;95704.27;;;5.95;90.47
61359;BME280;47228;46.762;23.598;2023-12-14T03:17:23;95702.13;;;5.90;90.30
61359;BME280;47228;46.762;23.598;2023-12-14T03:19:51;95706.89;;;5.88;90.76
61359;BME280;47228;46.762;23.598;2023-12-14T03:22:20;95704.42;;;5.87;91.06
61359;BME280;47228;46.762;23.598;2023-12-14T03:24:48;95708.48;;;5.87;90.98
61359;BME280;47228;46.762;23.598;2023-12-14T03:27:15;95718.70;;;5.87;90.98
61359;BME280;47228;46.762;23.598;2023-12-14T03:29:44;95729.66;;;5.83;90.68
61359;BME280;47228;46.762;23.598;2023-12-14T03:32:12;95739.09;;;5.81;90.70
61359;BME280;47228;46.762;23.598;2023-12-14T03:34:40;95745.29;;;5.79;90.81
61359;BME280;47228;46.762;23.598;2023-12-14T03:37:08;95744.17;;;5.76;90.61
61359;BME280;47228;46.762;23.598;2023-12-14T03:39:36;95748.71;;;5.71;90.50
61359;BME280;47228;46.762;23.598;2023-12-14T03:42:05;95759.15;;;5.66;90.76
61359;BME280;47228;46.762;23.598;2023-12-14T03:44:33;95765.15;;;5.66;91.42
61359;BME280;47228;46.762;23.598;2023-12-14T03:47:01;95765.38;;;5.68;91.60
61359;BME280;47228;46.762;23.598;2023-12-14T03:49:29;95774.20;;;5.71;91.73
61359;BME280;47228;46.762;23.598;2023-12-14T03:51:57;95777.30;;;5.75;92.09
61359;BME280;47228;46.762;23.598;2023-12-14T03:54:26;95783.66;;;5.77;91.81
61359;BME280;47228;46.762;23.598;2023-12-14T03:56:54;95781.99;;;5.77;91.53
61359;BME280;47228;46.762;23.598;2023-12-14T03:59:22;95784.54;;;5.77;91.82
61359;BME280;47228;46.762;23.598;2023-12-14T04:01:50;95787.03;;;5.80;91.96
61359;BME280;47228;46.762;23.598;2023-12-14T04:04:18;95787.27;;;5.80;91.69
61359;BME280;47228;46.762;23.598;2023-12-14T04:06:46;95793.20;;;5.81;91.43
61359;BME280;47228;46.762;23.598;2023-12-14T04:09:14;95812.69;;;5.82;91.77
61359;BME280;47228;46.762;23.598;2023-12-14T04:11:42;95824.31;;;5.83;91.94
61359;BME280;47228;46.762;23.598;2023-12-14T04:14:10;95810.58;;;5.84;91.58
61359;BME280;47228;46.762;23.598;2023-12-14T04:16:39;95794.55;;;5.85;91.88
61359;BME280;47228;46.762;23.598;2023-12-14T04:19:07;95792.91;;;5.88;92.03
61359;BME280;47228;46.762;23.598;2023-12-14T04:21:38;95788.56;;;5.91;92.06
61359;BME280;47228;46.762;23.598;2023-12-14T04:24:06;95791.42;;;5.92;91.94
61359;BME280;47228;46.762;23.598;2023-12-14T04:26:34;95795.22;;;5.96;92.20
61359;BME280;47228;46.762;23.598;2023-12-14T04:29:02;95800.36;;;5.99;92.21
61359;BME280;47228;46.762;23.598;2023-12-14T04:31:31;95807.64;;;6.03;92.20
61359;BME280;47228;46.762;23.598;2023-12-14T04:33:59;95805.44;;;6.07;92.19
61359;BME280;47228;46.762;23.598;2023-12-14T04:36:27;95813.88;;;6.11;92.22
61359;BME280;47228;46.762;23.598;2023-12-14T04:38:55;95818.17;;;6.12;91.71
61359;BME280;47228;46.762;23.598;2023-12-14T04:41:23;95818.79;;;6.13;91.37
61359;BME280;47228;46.762;23.598;2023-12-14T04:43:51;95834.67;;;6.15;91.69
61359;BME280;47228;46.762;23.598;2023-12-14T04:46:19;95851.64;;;6.18;91.92
61359;BME280;47228;46.762;23.598;2023-12-14T04:48:47;95849.23;;;6.21;92.12
61359;BME280;47228;46.762;23.598;2023-12-14T04:51:15;95844.34;;;6.25;92.08
61359;BME280;47228;46.762;23.598;2023-12-14T04:53:43;95841.00;;;6.28;91.96
61359;BME280;47228;46.762;23.598;2023-12-14T04:56:12;95841.63;;;6.31;92.07
61359;BME280;47228;46.762;23.598;2023-12-14T04:58:41;95837.17;;;6.33;92.07
61359;BME280;47228;46.762;23.598;2023-12-14T05:01:09;95832.83;;;6.36;91.88
61359;BME280;47228;46.762;23.598;2023-12-14T05:03:37;95830.74;;;6.38;91.54
61359;BME280;47228;46.762;23.598;2023-12-14T05:06:06;95829.59;;;6.40;91.39
61359;BME280;47228;46.762;23.598;2023-12-14T05:08:35;95836.48;;;6.43;91.45
61359;BME280;47228;46.762;23.598;2023-12-14T05:11:04;95846.13;;;6.43;90.92
61359;BME280;47228;46.762;23.598;2023-12-14T05:13:32;95856.58;;;6.40;90.55
61359;BME280;47228;46.762;23.598;2023-12-14T05:16:00;95858.25;;;6.38;90.99
61359;BME280;47228;46.762;23.598;2023-12-14T05:18:28;95861.83;;;6.37;91.08
61359;BME280;47228;46.762;23.598;2023-12-14T05:20:57;95860.29;;;6.37;91.02
61359;BME280;47228;46.762;23.598;2023-12-14T05:23:25;95869.38;;;6.38;90.99
61359;BME280;47228;46.762;23.598;2023-12-14T05:25:54;95875.34;;;6.39;91.13
61359;BME280;47228;46.762;23.598;2023-12-14T05:28:22;95875.93;;;6.40;91.27
61359;BME280;47228;46.762;23.598;2023-12-14T05:30:50;95881.52;;;6.41;91.14
61359;BME280;47228;46.762;23.598;2023-12-14T05:33:18;95889.78;;;6.44;91.39
61359;BME280;47228;46.762;23.598;2023-12-14T05:35:47;95902.36;;;6.44;91.15
61359;BME280;47228;46.762;23.598;2023-12-14T05:38:15;95912.79;;;6.44;91.03
61359;BME280;47228;46.762;23.598;2023-12-14T05:40:43;95916.24;;;6.43;91.16
61359;BME280;47228;46.762;23.598;2023-12-14T05:43:11;95917.42;;;6.42;90.85
61359;BME280;47228;46.762;23.598;2023-12-14T05:45:39;95913.01;;;6.40;90.86
61359;BME280;47228;46.762;23.598;2023-12-14T05:48:07;95912.77;;;6.39;90.95
61359;BME280;47228;46.762;23.598;2023-12-14T05:50:35;95922.07;;;6.38;91.02
61359;BME280;47228;46.762;23.598;2023-12-14T05:53:04;95929.74;;;6.38;91.23
61359;BME280;47228;46.762;23.598;2023-12-14T05:55:32;95928.81;;;6.39;91.41
61359;BME280;47228;46.762;23.598;2023-12-14T05:58:00;95923.66;;;6.38;91.24
61359;BME280;47228;46.762;23.598;2023-12-14T06:00:28;95924.11;;;6.39;91.57
61359;BME280;47228;46.762;23.598;2023-12-14T06:02:56;95923.70;;;6.39;91.35
61359;BME280;47228;46.762;23.598;2023-12-14T06:05:24;95921.30;;;6.38;91.30
61359;BME280;47228;46.762;23.598;2023-12-14T06:07:52;95927.77;;;6.38;91.30
61359;BME280;47228;46.762;23.598;2023-12-14T06:10:20;95941.27;;;6.36;91.16
61359;BME280;47228;46.762;23.598;2023-12-14T06:12:49;95942.54;;;6.35;91.10
61359;BME280;47228;46.762;23.598;2023-12-14T06:15:17;95936.87;;;6.34;91.48
61359;BME280;47228;46.762;23.598;2023-12-14T06:17:46;95933.29;;;6.36;91.44
61359;BME280;47228;46.762;23.598;2023-12-14T06:20:16;95933.69;;;6.37;91.24
61359;BME280;47228;46.762;23.598;2023-12-14T06:22:44;95941.64;;;6.36;90.73
61359;BME280;47228;46.762;23.598;2023-12-14T06:25:12;95948.83;;;6.35;90.90
61359;BME280;47228;46.762;23.598;2023-12-14T06:27:41;95943.11;;;6.34;91.11
61359;BME280;47228;46.762;23.598;2023-12-14T06:30:10;95941.00;;;6.34;90.93
61359;BME280;47228;46.762;23.598;2023-12-14T06:32:38;95943.60;;;6.35;90.94
61359;BME280;47228;46.762;23.598;2023-12-14T06:35:07;95943.23;;;6.36;91.16
61359;BME280;47228;46.762;23.598;2023-12-14T06:37:36;95954.74;;;6.37;91.10
61359;BME280;47228;46.762;23.598;2023-12-14T06:40:04;95965.30;;;6.36;90.81
61359;BME280;47228;46.762;23.598;2023-12-14T06:42:33;95971.74;;;6.36;91.00
61359;BME280;47228;46.762;23.598;2023-12-14T06:45:02;95966.84;;;6.36;91.05
61359;BME280;47228;46.762;23.598;2023-12-14T06:47:31;95952.91;;;6.36;91.07
61359;BME280;47228;46.762;23.598;2023-12-14T06:49:59;95951.98;;;6.38;91.24
61359;BME280;47228;46.762;23.598;2023-12-14T06:52:27;95966.83;;;6.39;91.13
61359;BME280;47228;46.762;23.598;2023-12-14T06:54:56;95986.98;;;6.40;91.16
61359;BME280;47228;46.762;23.598;2023-12-14T06:57:25;95983.08;;;6.43;91.05
61359;BME280;47228;46.762;23.598;2023-12-14T06:59:54;95980.02;;;6.46;91.07
61359;BME280;47228;46.762;23.598;2023-12-14T07:02:22;95999.05;;;6.47;90.86
61359;BME280;47228;46.762;23.598;2023-12-14T07:04:50;96019.09;;;6.47;90.69
61359;BME280;47228;46.762;23.598;2023-12-14T07:07:19;96021.73;;;6.47;90.63
61359;BME280;47228;46.762;23.598;2023-12-14T07:09:47;96036.30;;;6.46;90.21
61359;BME280;47228;46.762;23.598;2023-12-14T07:12:16;96035.51;;;6.43;89.96
61359;BME280;47228;46.762;23.598;2023-12-14T07:14:44;96034.30;;;6.40;89.88
61359;BME280;47228;46.762;23.598;2023-12-14T07:17:12;96036.38;;;6.36;89.81
61359;BME280;47228;46.762;23.598;2023-12-14T07:19:41;96045.23;;;6.33;89.84
61359;BME280;47228;46.762;23.598;2023-12-14T07:22:09;96068.58;;;6.31;89.89
61359;BME280;47228;46.762;23.598;2023-12-14T07:24:37;96068.66;;;6.30;89.97
61359;BME280;47228;46.762;23.598;2023-12-14T07:27:19;96050.28;;;6.32;90.52
61359;BME280;47228;46.762;23.598;2023-12-14T07:29:48;96057.71;;;6.36;90.40
61359;BME280;47228;46.762;23.598;2023-12-14T07:32:16;96064.17;;;6.38;90.31
61359;BME280;47228;46.762;23.598;2023-12-14T07:34:45;96073.73;;;6.38;90.05
61359;BME280;47228;46.762;23.598;2023-12-14T07:37:14;96083.27;;;6.39;90.03
61359;BME280;47228;46.762;23.598;2023-12-14T07:39:42;96081.32;;;6.41;90.18
61359;BME280;47228;46.762;23.598;2023-12-14T07:42:10;96078.83;;;6.45;90.59
61359;BME280;47228;46.762;23.598;2023-12-14T07:44:38;96074.05;;;6.52;90.76
61359;BME280;47228;46.762;23.598;2023-12-14T07:47:08;96067.54;;;6.60;91.06
61359;BME280;47228;46.762;23.598;2023-12-14T07:49:36;96066.66;;;6.65;91.01
61359;BME280;47228;46.762;23.598;2023-12-14T07:52:05;96098.43;;;6.66;90.00
61359;BME280;47228;46.762;23.598;2023-12-14T07:54:34;96120.08;;;6.67;89.70
61359;BME280;47228;46.762;23.598;2023-12-14T07:57:02;96114.98;;;6.69;90.04
61359;BME280;47228;46.762;23.598;2023-12-14T07:59:31;96105.64;;;6.73;90.27
61359;BME280;47228;46.762;23.598;2023-12-14T08:01:59;96113.81;;;6.79;90.54
61359;BME280;47228;46.762;23.598;2023-12-14T08:04:27;96121.50;;;6.85;90.53
61359;BME280;47228;46.762;23.598;2023-12-14T08:06:55;96123.73;;;6.90;90.45
61359;BME280;47228;46.762;23.598;2023-12-14T08:09:24;96125.04;;;6.94;90.08
61359;BME280;47228;46.762;23.598;2023-12-14T08:11:52;96128.30;;;6.97;90.08
61359;BME280;47228;46.762;23.598;2023-12-14T08:14:20;96126.63;;;7.02;90.12
61359;BME280;47228;46.762;23.598;2023-12-14T08:16:48;96125.85;;;7.04;89.76
61359;BME280;47228;46.762;23.598;2023-12-14T08:19:16;96134.45;;;7.05;89.57
61359;BME280;47228;46.762;23.598;2023-12-14T08:21:45;96141.09;;;7.06;89.29
61359;BME280;47228;46.762;23.598;2023-12-14T08:24:13;96142.33;;;7.05;89.21
61359;BME280;47228;46.762;23.598;2023-12-14T08:26:41;96138.73;;;7.04;88.98
61359;BME280;47228;46.762;23.598;2023-12-14T08:29:09;96144.56;;;7.03;88.99
61359;BME280;47228;46.762;23.598;2023-12-14T08:31:38;96155.45;;;7.03;88.98
61359;BME280;47228;46.762;23.598;2023-12-14T08:34:06;96165.85;;;7.04;89.19
61359;BME280;47228;46.762;23.598;2023-12-14T08:36:34;96177.75;;;7.05;88.75
61359;BME280;47228;46.762;23.598;2023-12-14T08:39:02;96181.11;;;7.06;88.81
61359;BME280;47228;46.762;23.598;2023-12-14T08:41:31;96179.44;;;7.07;88.98
61359;BME280;47228;46.762;23.598;2023-12-14T08:43:59;96174.98;;;7.09;88.97
61359;BME280;47228;46.762;23.598;2023-12-14T08:46:27;96173.63;;;7.11;89.01
61359;BME280;47228;46.762;23.598;2023-12-14T08:48:55;96169.63;;;7.13;88.82
61359;BME280;47228;46.762;23.598;2023-12-14T08:51:24;96171.41;;;7.14;88.35
61359;BME280;47228;46.762;23.598;2023-12-14T08:53:54;96182.44;;;7.12;87.83
61359;BME280;47228;46.762;23.598;2023-12-14T08:56:22;96191.98;;;7.11;87.88
61359;BME280;47228;46.762;23.598;2023-12-14T08:58:50;96195.67;;;7.13;87.90
61359;BME280;47228;46.762;23.598;2023-12-14T09:01:20;96196.07;;;7.16;87.97
61359;BME280;47228;46.762;23.598;2023-12-14T09:03:49;96193.41;;;7.18;88.22
61359;BME280;47228;46.762;23.598;2023-12-14T09:06:18;96189.77;;;7.19;87.70
61359;BME280;47228;46.762;23.598;2023-12-14T09:08:46;96192.94;;;7.18;87.26
61359;BME280;47228;46.762;23.598;2023-12-14T09:11:14;96195.37;;;7.17;87.20
61359;BME280;47228;46.762;23.598;2023-12-14T09:13:43;96203.95;;;7.15;86.75
61359;BME280;47228;46.762;23.598;2023-12-14T09:16:12;96213.63;;;7.12;86.49
61359;BME280;47228;46.762;23.598;2023-12-14T09:18:41;96215.95;;;7.10;86.37
61359;BME280;47228;46.762;23.598;2023-12-14T09:21:10;96213.08;;;7.07;86.25
61359;BME280;47228;46.762;23.598;2023-12-14T09:23:38;96209.35;;;7.03;86.26
61359;BME280;47228;46.762;23.598;2023-12-14T09:26:08;96210.38;;;7.02;86.62
61359;BME280;47228;46.762;23.598;2023-12-14T09:28:36;96217.88;;;7.02;86.54
61359;BME280;47228;46.762;23.598;2023-12-14T09:31:05;96229.59;;;7.01;86.33
61359;BME280;47228;46.762;23.598;2023-12-14T09:33:36;96234.52;;;6.98;86.18
61359;BME280;47228;46.762;23.598;2023-12-14T09:36:04;96229.08;;;6.95;86.17
61359;BME280;47228;46.762;23.598;2023-12-14T09:38:33;96224.65;;;6.94;86.23
61359;BME280;47228;46.762;23.598;2023-12-14T09:41:01;96223.25;;;6.90;85.77
61359;BME280;47228;46.762;23.598;2023-12-14T09:43:29;96224.02;;;6.87;85.74
61359;BME280;47228;46.762;23.598;2023-12-14T09:45:57;96224.57;;;6.82;85.60
61359;BME280;47228;46.762;23.598;2023-12-14T09:48:28;96220.31;;;6.79;85.71
61359;BME280;47228;46.762;23.598;2023-12-14T09:50:57;96216.79;;;6.76;85.80
61359;BME280;47228;46.762;23.598;2023-12-14T09:53:26;96212.23;;;6.71;85.06
61359;BME280;47228;46.762;23.598;2023-12-14T09:55:54;96203.46;;;6.65;84.98
61359;BME280;47228;46.762;23.598;2023-12-14T09:58:22;96194.52;;;6.62;85.27
61359;BME280;47228;46.762;23.598;2023-12-14T10:00:50;96199.68;;;6.62;85.82
61359;BME280;47228;46.762;23.598;2023-12-14T10:05:52;96205.23;;;6.66;86.32
61359;BME280;47228;46.762;23.598;2023-12-14T10:08:20;96205.68;;;6.67;85.77
61359;BME280;47228;46.762;23.598;2023-12-14T10:10:51;96211.23;;;6.67;85.71
61359;BME280;47228;46.762;23.598;2023-12-14T10:13:23;96217.70;;;6.68;86.00
61359;BME280;47228;46.762;23.598;2023-12-14T10:16:03;96219.41;;;6.67;85.54
61359;BME280;47228;46.762;23.598;2023-12-14T10:18:32;96215.11;;;6.66;85.55
61359;BME280;47228;46.762;23.598;2023-12-14T10:21:03;96220.89;;;6.68;85.72
61359;BME280;47228;46.762;23.598;2023-12-14T10:23:31;96223.34;;;6.70;85.93
61359;BME280;47228;46.762;23.598;2023-12-14T10:25:59;96230.15;;;6.74;85.89
61359;BME280;47228;46.762;23.598;2023-12-14T10:28:28;96237.05;;;6.76;85.75
61359;BME280;47228;46.762;23.598;2023-12-14T10:30:56;96236.52;;;6.78;85.65
61359;BME280;47228;46.762;23.598;2023-12-14T10:33:24;96228.06;;;6.79;85.57
61359;BME280;47228;46.762;23.598;2023-12-14T10:35:54;96224.00;;;6.79;85.21
61359;BME280;47228;46.762;23.598;2023-12-14T10:38:24;96226.94;;;6.77;85.03
61359;BME280;47228;46.762;23.598;2023-12-14T10:40:52;96233.56;;;6.76;85.13
61359;BME280;47228;46.762;23.598;2023-12-14T10:43:21;96237.91;;;6.75;85.15
61359;BME280;47228;46.762;23.598;2023-12-14T10:46:10;96243.95;;;6.73;84.95
61359;BME280;47228;46.762;23.598;2023-12-14T10:48:38;96247.89;;;6.72;85.22
61359;BME280;47228;46.762;23.598;2023-12-14T10:51:11;96249.68;;;6.74;85.13
61359;BME280;47228;46.762;23.598;2023-12-14T10:53:41;96249.90;;;6.75;85.22
61359;BME280;47228;46.762;23.598;2023-12-14T10:56:16;96254.64;;;6.75;85.23
61359;BME280;47228;46.762;23.598;2023-12-14T11:01:19;96259.14;;;6.74;85.22
61359;BME280;47228;46.762;23.598;2023-12-14T11:03:48;96262.23;;;6.76;85.22
61359;BME280;47228;46.762;23.598;2023-12-14T11:06:27;96268.76;;;6.73;84.43
61359;BME280;47228;46.762;23.598;2023-12-14T11:09:03;96268.16;;;6.69;84.72
61359;BME280;47228;46.762;23.598;2023-12-14T11:11:54;96272.27;;;6.68;84.82
61359;BME280;47228;46.762;23.598;2023-12-14T11:14:28;96280.34;;;6.68;84.78
61359;BME280;47228;46.762;23.598;2023-12-14T11:17:06;96281.59;;;6.68;84.74
61359;BME280;47228;46.762;23.598;2023-12-14T11:19:36;96281.44;;;6.66;84.66
61359;BME280;47228;46.762;23.598;2023-12-14T11:24:35;96288.10;;;6.66;85.04
61359;BME280;47228;46.762;23.598;2023-12-14T11:27:06;96288.92;;;6.67;85.05
61359;BME280;47228;46.762;23.598;2023-12-14T11:29:39;96289.02;;;6.68;84.89
61359;BME280;47228;46.762;23.598;2023-12-14T11:32:09;96287.20;;;6.67;84.55
61359;BME280;47228;46.762;23.598;2023-12-14T11:34:39;96281.00;;;6.68;84.84
61359;BME280;47228;46.762;23.598;2023-12-14T11:37:08;96282.94;;;6.71;85.19
61359;BME280;47228;46.762;23.598;2023-12-14T11:39:37;96288.58;;;6.74;85.28
61359;BME280;47228;46.762;23.598;2023-12-14T11:42:06;96286.62;;;6.74;85.11
61359;BME280;47228;46.762;23.598;2023-12-14T11:44:40;96294.83;;;6.71;85.05
61359;BME280;47228;46.762;23.598;2023-12-14T11:47:09;96297.55;;;6.67;84.99
61359;BME280;47228;46.762;23.598;2023-12-14T11:49:37;96293.98;;;6.63;85.27
61359;BME280;47228;46.762;23.598;2023-12-14T11:52:05;96288.78;;;6.63;85.58
61359;BME280;47228;46.762;23.598;2023-12-14T11:54:33;96293.33;;;6.63;85.89
61359;BME280;47228;46.762;23.598;2023-12-14T11:57:02;96295.98;;;6.62;85.72
61359;BME280;47228;46.762;23.598;2023-12-14T11:59:31;96301.45;;;6.60;85.84
61359;BME280;47228;46.762;23.598;2023-12-14T12:02:01;96307.26;;;6.58;86.19
61359;BME280;47228;46.762;23.598;2023-12-14T12:04:29;96304.90;;;6.59;86.77
61359;BME280;47228;46.762;23.598;2023-12-14T12:07:05;96307.54;;;6.62;87.01
61359;BME280;47228;46.762;23.598;2023-12-14T12:09:39;96302.30;;;6.64;87.18
61359;BME280;47228;46.762;23.598;2023-12-14T12:12:09;96306.33;;;6.67;87.21
61359;BME280;47228;46.762;23.598;2023-12-14T12:14:39;96309.09;;;6.70;87.41
61359;BME280;47228;46.762;23.598;2023-12-14T12:17:08;96310.70;;;6.74;87.39
61359;BME280;47228;46.762;23.598;2023-12-14T12:19:37;96314.27;;;6.76;87.06
61359;BME280;47228;46.762;23.598;2023-12-14T12:22:05;96314.60;;;6.78;87.03
61359;BME280;47228;46.762;23.598;2023-12-14T12:24:34;96315.98;;;6.78;86.82
61359;BME280;47228;46.762;23.598;2023-12-14T12:27:02;96316.10;;;6.74;86.29
61359;BME280;47228;46.762;23.598;2023-12-14T12:29:31;96324.71;;;6.72;86.31
61359;BME280;47228;46.762;23.598;2023-12-14T12:32:00;96332.75;;;6.68;86.13
61359;BME280;47228;46.762;23.598;2023-12-14T12:34:28;96335.63;;;6.62;85.57
61359;BME280;47228;46.762;23.598;2023-12-14T12:36:56;96333.61;;;6.53;85.18
61359;BME280;47228;46.762;23.598;2023-12-14T12:39:25;96341.71;;;6.48;85.71
61359;BME280;47228;46.762;23.598;2023-12-14T12:41:53;96346.66;;;6.45;86.07
61359;BME280;47228;46.762;23.598;2023-12-14T12:44:22;96348.94;;;6.45;86.62
61359;BME280;47228;46.762;23.598;2023-12-14T12:46:50;96349.96;;;6.48;86.96
61359;BME280;47228;46.762;23.598;2023-12-14T12:49:35;96347.92;;;6.50;87.03
61359;BME280;47228;46.762;23.598;2023-12-14T12:52:03;96354.06;;;6.50;86.76
61359;BME280;47228;46.762;23.598;2023-12-14T12:54:32;96359.58;;;6.50;86.65
61359;BME280;47228;46.762;23.598;2023-12-14T12:57:01;96361.36;;;6.50;86.64
61359;BME280;47228;46.762;23.598;2023-12-14T12:59:29;96362.79;;;6.48;86.39
61359;BME280;47228;46.762;23.598;2023-12-14T13:01:57;96369.55;;;6.46;86.40
61359;BME280;47228;46.762;23.598;2023-12-14T13:04:25;96373.58;;;6.46;86.62
61359;BME280;47228;46.762;23.598;2023-12-14T13:06:54;96370.09;;;6.46;86.50
61359;BME280;47228;46.762;23.598;2023-12-14T13:09:23;96377.27;;;6.46;86.51
61359;BME280;47228;46.762;23.598;2023-12-14T13:11:51;96378.23;;;6.45;86.50
61359;BME280;47228;46.762;23.598;2023-12-14T13:14:20;96381.24;;;6.45;86.56
61359;BME280;47228;46.762;23.598;2023-12-14T13:16:48;96384.33;;;6.44;86.55